createdAt,value
2022-08-18T00:00:01.239Z,10.18
2022-08-18T00:02:31.098Z,9.88
2022-08-18T00:05:01.184Z,10.53
2022-08-18T00:07:32.783Z,10.23
2022-08-18T00:10:01.415Z,9.43
2022-08-18T00:12:32.596Z,10.15
2022-08-18T00:15:03.648Z,10.63
2022-08-18T00:17:33.877Z,10.05
2022-08-18T00:20:02.163Z,10.30
2022-08-18T00:22:30.277Z,10.68
2022-08-18T00:24:58.786Z,10.38
2022-08-18T00:27:29.014Z,10.50
2022-08-18T00:29:58.831Z,11.10
2022-08-18T00:32:28.847Z,11.00
2022-08-18T00:34:58.189Z,11.35
2022-08-18T00:37:26.184Z,11.70
2022-08-18T00:39:54.827Z,11.93
2022-08-18T00:42:28.840Z,10.65
2022-08-18T00:45:07.082Z,10.80
2022-08-18T00:47:42.304Z,9.85
2022-08-18T00:50:16.772Z,10.38
2022-08-18T00:52:52.178Z,10.30
2022-08-18T00:55:21.310Z,10.77
2022-08-18T00:57:52.481Z,10.25
2022-08-18T01:00:21.225Z,10.55
2022-08-18T01:02:52.712Z,10.93
2022-08-18T01:05:25.243Z,11.18
2022-08-18T01:07:53.407Z,11.00
2022-08-18T01:10:23.894Z,10.88
2022-08-18T01:12:54.156Z,10.50
2022-08-18T01:15:28.718Z,10.73
2022-08-18T01:18:16.227Z,11.55
2022-08-18T01:21:16.540Z,10.82
2022-08-18T01:23:46.773Z,11.75
2022-08-18T01:26:14.851Z,10.98
2022-08-18T01:28:44.616Z,10.52
2022-08-18T01:31:13.788Z,10.52
2022-08-18T01:33:44.093Z,10.30
2022-08-18T01:36:14.428Z,10.68
2022-08-18T01:38:42.430Z,11.02
2022-08-18T01:41:26.908Z,10.40
2022-08-18T01:43:58.475Z,10.55
2022-08-18T01:46:26.955Z,9.93
2022-08-18T01:48:55.233Z,9.98
2022-08-18T01:51:39.495Z,11.63
2022-08-18T01:54:11.187Z,10.02
2022-08-18T01:56:42.302Z,10.68
2022-08-18T01:59:14.992Z,10.80
2022-08-18T02:01:53.105Z,11.07
2022-08-18T02:04:35.635Z,11.55
2022-08-18T02:07:09.604Z,11.15
2022-08-18T02:09:39.335Z,10.95
2022-08-18T02:12:09.235Z,11.70
2022-08-18T02:14:38.181Z,11.68
2022-08-18T02:17:08.704Z,10.32
2022-08-18T02:19:38.352Z,11.50
2022-08-18T02:22:07.865Z,11.43
2022-08-18T02:24:36.041Z,11.60
2022-08-18T02:27:04.194Z,10.50
2022-08-18T02:29:33.634Z,11.20
2022-08-18T02:32:01.729Z,10.93
2022-08-18T02:34:29.836Z,10.40
2022-08-18T02:36:57.823Z,11.23
2022-08-18T02:39:25.782Z,11.07
2022-08-18T02:41:53.748Z,11.18
2022-08-18T02:44:21.776Z,11.75
2022-08-18T02:46:54.821Z,12.18
2022-08-18T02:49:22.827Z,11.00
2022-08-18T02:51:51.153Z,11.93
2022-08-18T02:54:20.427Z,12.05
2022-08-18T02:56:48.397Z,10.73
2022-08-18T02:59:17.900Z,11.05
2022-08-18T03:01:48.591Z,10.95
2022-08-18T03:04:26.662Z,11.10
2022-08-18T03:06:57.394Z,11.05
2022-08-18T03:09:25.395Z,11.23
2022-08-18T03:11:54.585Z,11.60
2022-08-18T03:14:22.995Z,11.93
2022-08-18T03:16:54.254Z,12.10
2022-08-18T03:19:39.200Z,12.30
2022-08-18T03:22:27.697Z,11.80
2022-08-18T03:24:57.639Z,13.18
2022-08-18T03:27:25.747Z,12.20
2022-08-18T03:29:53.868Z,12.10
2022-08-18T03:32:22.644Z,11.82
2022-08-18T03:34:52.072Z,12.25
2022-08-18T03:37:20.032Z,12.40
2022-08-18T03:39:51.662Z,12.27
2022-08-18T03:42:19.689Z,12.32
2022-08-18T03:44:47.645Z,12.32
2022-08-18T03:47:18.083Z,12.02
2022-08-18T03:49:46.076Z,12.25
2022-08-18T03:52:15.564Z,12.75
2022-08-18T03:54:43.803Z,13.13
2022-08-18T03:57:12.876Z,11.65
2022-08-18T03:59:43.552Z,13.85
2022-08-18T04:02:11.951Z,12.52
2022-08-18T04:04:43.005Z,12.48
2022-08-18T04:07:14.322Z,12.80
2022-08-18T04:09:44.040Z,12.50
2022-08-18T04:12:16.378Z,12.68
2022-08-18T04:14:48.019Z,12.98
2022-08-18T04:17:16.748Z,12.70
2022-08-18T04:19:44.985Z,13.82
2022-08-18T04:22:18.632Z,12.63
2022-08-18T04:24:48.100Z,12.50
2022-08-18T04:27:18.474Z,13.00
2022-08-18T04:29:46.476Z,13.27
2022-08-18T04:32:15.176Z,13.18
2022-08-18T04:34:43.203Z,12.75
2022-08-18T04:37:11.178Z,14.15
2022-08-18T04:39:39.505Z,13.77
2022-08-18T04:42:09.258Z,12.40
2022-08-18T04:44:38.835Z,13.18
2022-08-18T04:47:07.839Z,13.00
2022-08-18T04:49:36.570Z,12.75
2022-08-18T04:52:39.135Z,14.98
2022-08-18T04:55:09.908Z,13.77
2022-08-18T04:57:39.552Z,13.85
2022-08-18T05:00:08.968Z,14.50
2022-08-18T05:02:37.001Z,12.93
2022-08-18T05:05:05.480Z,13.05
2022-08-18T05:07:33.973Z,13.75
2022-08-18T05:10:02.043Z,12.98
2022-08-18T05:12:30.065Z,13.60
2022-08-18T05:14:59.414Z,12.52
2022-08-18T05:17:29.933Z,13.40
2022-08-18T05:19:59.986Z,13.07
2022-08-18T05:22:30.994Z,13.10
2022-08-18T05:25:00.145Z,12.90
2022-08-18T05:27:32.865Z,13.52
2022-08-18T05:30:02.398Z,12.43
2022-08-18T05:32:46.723Z,13.40
2022-08-18T05:35:21.622Z,13.13
2022-08-18T05:38:02.043Z,13.20
2022-08-18T05:40:31.854Z,12.50
2022-08-18T05:43:00.359Z,13.52
2022-08-18T05:45:29.956Z,12.57
2022-08-18T05:47:59.949Z,13.50
2022-08-18T05:50:29.890Z,12.88
2022-08-18T05:52:59.575Z,12.43
2022-08-18T05:55:48.517Z,11.88
2022-08-18T05:58:19.283Z,12.18
2022-08-18T06:00:57.508Z,11.73
2022-08-18T06:03:45.236Z,12.18
2022-08-18T06:06:19.456Z,12.95
2022-08-18T06:08:53.791Z,12.68
2022-08-18T06:11:22.735Z,12.55
2022-08-18T06:13:51.692Z,12.80
2022-08-18T06:16:38.999Z,14.10
2022-08-18T06:19:19.678Z,12.48
2022-08-18T06:21:54.321Z,13.63
2022-08-18T06:24:27.544Z,13.13
2022-08-18T06:26:58.997Z,13.82
2022-08-18T06:29:35.829Z,13.60
2022-08-18T06:32:14.366Z,13.57
2022-08-18T06:34:54.559Z,13.10
2022-08-18T06:37:32.072Z,12.98
2022-08-18T06:40:00.152Z,12.90
2022-08-18T06:42:30.786Z,13.32
2022-08-18T06:45:02.202Z,13.80
2022-08-18T06:47:37.313Z,13.38
2022-08-18T06:50:08.268Z,13.27
2022-08-18T06:52:38.434Z,12.77
2022-08-18T06:55:09.057Z,13.68
2022-08-18T06:57:39.817Z,13.43
2022-08-18T07:00:12.895Z,12.35
2022-08-18T07:02:48.338Z,13.30
2022-08-18T07:05:20.483Z,12.55
2022-08-18T07:10:32.612Z,12.48
2022-08-18T07:13:18.784Z,12.52
2022-08-18T07:15:48.497Z,12.55
2022-08-18T07:18:28.003Z,12.70
2022-08-18T07:20:58.701Z,12.35
2022-08-18T07:23:29.973Z,11.73
2022-08-18T07:26:05.401Z,13.17
2022-08-18T07:28:37.662Z,13.10
2022-08-18T07:31:24.823Z,12.35
2022-08-18T07:34:02.108Z,12.45
2022-08-18T07:36:33.799Z,11.88
2022-08-18T07:39:05.045Z,13.05
2022-08-18T07:41:36.429Z,11.57
2022-08-18T07:44:14.004Z,13.45
2022-08-18T07:46:45.301Z,11.80
2022-08-18T07:49:22.173Z,11.45
2022-08-18T07:51:54.591Z,11.50
2022-08-18T07:54:48.899Z,11.88
2022-08-18T07:57:24.688Z,11.98
2022-08-18T07:59:57.904Z,12.70
2022-08-18T08:02:37.593Z,12.38
2022-08-18T08:05:16.074Z,12.25
2022-08-18T08:07:47.343Z,12.93
2022-08-18T08:10:26.759Z,12.87
2022-08-18T08:13:09.197Z,12.07
2022-08-18T08:15:50.890Z,13.18
2022-08-18T08:18:23.398Z,12.15
2022-08-18T08:20:55.778Z,12.10
2022-08-18T08:23:30.387Z,13.52
2022-08-18T08:26:10.092Z,13.02
2022-08-18T08:28:43.999Z,13.18
2022-08-18T08:34:08.637Z,12.55
2022-08-18T08:36:41.192Z,12.48
2022-08-18T08:39:14.185Z,13.48
2022-08-18T08:41:45.637Z,13.02
2022-08-18T08:44:17.190Z,12.32
2022-08-18T08:46:48.585Z,12.23
2022-08-18T08:49:26.975Z,12.80
2022-08-18T08:51:59.531Z,11.40
2022-08-18T08:54:32.048Z,11.20
2022-08-18T08:57:01.308Z,12.30
2022-08-18T08:59:29.319Z,11.38
2022-08-18T09:02:05.755Z,11.55
2022-08-18T09:04:54.781Z,11.88
2022-08-18T09:07:43.395Z,11.50
2022-08-18T09:10:26.700Z,11.18
2022-08-18T09:13:05.448Z,10.82
2022-08-18T09:15:43.312Z,11.30
2022-08-18T09:18:34.173Z,11.38
2022-08-18T09:21:11.307Z,11.88
2022-08-18T09:23:44.685Z,11.23
2022-08-18T09:26:40.531Z,10.38
2022-08-18T09:29:21.808Z,11.63
2022-08-18T09:31:51.108Z,12.13
2022-08-18T09:34:31.802Z,10.43
2022-08-18T09:37:05.617Z,11.25
2022-08-18T09:39:59.086Z,10.68
2022-08-18T09:42:48.326Z,10.32
2022-08-18T09:45:54.577Z,11.18
2022-08-18T09:48:29.237Z,10.63
2022-08-18T09:51:19.159Z,9.70
2022-08-18T09:54:09.621Z,9.75
2022-08-18T09:56:59.649Z,10.20
2022-08-18T09:59:52.662Z,10.05
2022-08-18T10:02:55.625Z,10.65
2022-08-18T10:05:28.316Z,9.25
2022-08-18T10:08:28.906Z,9.45
2022-08-18T10:14:00.149Z,9.63
2022-08-18T10:16:42.011Z,9.07
2022-08-18T10:19:28.217Z,9.15
2022-08-18T10:22:06.360Z,9.43
2022-08-18T10:24:37.974Z,10.52
2022-08-18T10:27:08.939Z,8.75
2022-08-18T10:29:50.920Z,8.83
2022-08-18T10:32:38.357Z,9.50
2022-08-18T10:35:07.785Z,8.90
2022-08-18T10:37:39.722Z,9.35
2022-08-18T10:40:21.146Z,9.73
2022-08-18T10:45:27.658Z,8.80
2022-08-18T10:48:16.769Z,8.70
2022-08-18T10:50:51.159Z,8.73
2022-08-18T10:53:39.293Z,8.75
2022-08-18T10:56:26.798Z,9.02
2022-08-18T10:59:05.348Z,9.52
2022-08-18T11:01:46.013Z,10.48
2022-08-18T11:04:34.738Z,9.82
2022-08-18T11:07:11.135Z,9.45
2022-08-18T11:09:41.959Z,8.55
2022-08-18T11:12:12.943Z,9.40
2022-08-18T11:17:40.460Z,9.20
2022-08-18T11:20:13.393Z,9.23
2022-08-18T11:22:51.262Z,9.52
2022-08-18T11:25:25.027Z,9.38
2022-08-18T11:27:56.397Z,9.05
2022-08-18T11:30:30.639Z,8.93
2022-08-18T11:33:02.910Z,8.75
2022-08-18T11:35:33.480Z,8.65
2022-08-18T11:38:03.683Z,8.23
2022-08-18T11:46:00.147Z,7.78
2022-08-18T11:48:51.893Z,8.68
2022-08-18T11:51:25.135Z,8.18
2022-08-18T11:53:59.423Z,8.98
2022-08-18T11:56:31.270Z,7.90
2022-08-18T11:59:01.715Z,8.32
2022-08-18T12:01:40.834Z,8.38
2022-08-18T12:04:23.839Z,7.90
2022-08-18T12:10:07.859Z,7.80
2022-08-18T12:12:18.288Z,7.45
2022-08-18T12:15:02.964Z,7.43
2022-08-18T12:17:41.016Z,7.07
2022-08-18T12:20:11.814Z,6.60
2022-08-18T12:22:43.915Z,7.78
2022-08-18T12:25:15.553Z,7.20
2022-08-18T12:27:52.616Z,7.68
2022-08-18T12:30:20.748Z,7.50
2022-08-18T12:32:50.712Z,7.55
2022-08-18T12:35:25.489Z,7.55
2022-08-18T12:37:59.631Z,7.50
2022-08-18T12:40:31.568Z,7.78
2022-08-18T12:42:59.598Z,7.78
2022-08-18T12:45:30.879Z,7.97
2022-08-18T12:48:04.140Z,8.25
2022-08-18T12:50:43.179Z,8.00
2022-08-18T12:53:30.834Z,8.75
2022-08-18T12:56:19.756Z,8.30
2022-08-18T12:58:47.885Z,8.63
2022-08-18T13:01:17.478Z,9.25
2022-08-18T13:06:40.694Z,8.27
2022-08-18T13:09:33.990Z,8.00
2022-08-18T13:11:57.390Z,7.97
2022-08-18T13:14:28.455Z,9.65
2022-08-18T13:16:56.553Z,7.85
2022-08-18T13:19:25.847Z,8.35
2022-08-18T13:22:02.818Z,8.43
2022-08-18T13:24:31.594Z,8.00
2022-08-18T13:27:00.596Z,7.75
2022-08-18T13:29:28.657Z,8.15
2022-08-18T13:31:59.520Z,8.23
2022-08-18T13:34:29.988Z,8.13
2022-08-18T13:36:58.542Z,7.72
2022-08-18T13:39:31.272Z,7.57
2022-08-18T13:42:28.547Z,7.85
2022-08-18T13:44:53.458Z,7.20
2022-08-18T13:47:22.185Z,6.50
2022-08-18T13:49:58.055Z,7.38
2022-08-18T13:52:34.394Z,7.30
2022-08-18T13:55:08.543Z,7.40
2022-08-18T13:57:41.811Z,8.10
2022-08-18T14:00:18.067Z,7.80
2022-08-18T14:02:51.024Z,7.38
2022-08-18T14:05:20.587Z,7.60
2022-08-18T14:07:48.815Z,7.20
2022-08-18T14:10:18.885Z,7.32
2022-08-18T14:12:47.419Z,7.50
2022-08-18T14:15:17.777Z,6.63
2022-08-18T14:17:46.919Z,6.78
2022-08-18T14:20:34.703Z,7.15
2022-08-18T14:23:24.591Z,6.43
2022-08-18T14:26:19.011Z,6.07
2022-08-18T14:28:47.698Z,6.97
2022-08-18T14:31:18.248Z,7.10
2022-08-18T14:33:50.421Z,7.13
2022-08-18T14:36:29.908Z,8.07
2022-08-18T14:38:58.952Z,7.88
2022-08-18T14:41:29.337Z,7.68
2022-08-18T14:44:12.967Z,7.47
2022-08-18T14:46:54.046Z,7.50
2022-08-18T14:49:29.463Z,7.10
2022-08-18T14:51:58.950Z,6.70
2022-08-18T14:54:28.596Z,6.82
2022-08-18T14:57:01.687Z,6.50
2022-08-18T14:59:30.880Z,6.30
2022-08-18T15:02:07.618Z,6.40
2022-08-18T15:04:55.804Z,6.43
2022-08-18T15:07:24.983Z,7.30
2022-08-18T15:10:15.289Z,6.70
2022-08-18T15:12:43.819Z,8.85
2022-08-18T15:15:17.765Z,8.35
2022-08-18T15:17:49.561Z,8.55
2022-08-18T15:20:23.815Z,8.88
2022-08-18T15:23:18.366Z,8.55
2022-08-18T15:25:52.817Z,8.60
2022-08-18T15:28:26.276Z,8.38
2022-08-18T15:33:42.276Z,8.65
2022-08-18T15:36:10.698Z,9.32
2022-08-18T15:38:44.506Z,8.43
2022-08-18T15:41:29.030Z,9.70
2022-08-18T15:44:00.866Z,8.65
2022-08-18T15:46:28.907Z,9.40
2022-08-18T15:48:57.424Z,9.65
2022-08-18T15:51:26.604Z,8.57
2022-08-18T15:54:04.206Z,9.00
2022-08-18T15:56:32.634Z,8.80
2022-08-18T15:59:07.691Z,8.35
2022-08-18T16:01:40.532Z,8.88
2022-08-18T16:04:10.034Z,8.52
2022-08-18T16:06:45.121Z,9.30
2022-08-18T16:09:13.674Z,8.43
2022-08-18T16:11:42.421Z,8.10
2022-08-18T16:14:11.826Z,8.30
2022-08-18T16:16:39.828Z,8.27
2022-08-18T16:19:08.171Z,7.90
2022-08-18T16:21:40.145Z,8.02
2022-08-18T16:24:09.199Z,7.97
2022-08-18T16:26:37.171Z,8.10
2022-08-18T16:29:06.309Z,7.40
2022-08-18T16:31:35.616Z,8.50
2022-08-18T16:34:05.801Z,8.52
2022-08-18T16:36:33.748Z,8.32
2022-08-18T16:39:01.726Z,8.63
2022-08-18T16:41:31.854Z,8.15
2022-08-18T16:43:59.813Z,8.25
2022-08-18T16:46:29.212Z,7.95
2022-08-18T16:48:59.287Z,8.73
2022-08-18T16:51:28.832Z,8.27
2022-08-18T16:53:57.038Z,7.82
2022-08-18T16:56:27.476Z,7.78
2022-08-18T16:59:13.261Z,7.78
2022-08-18T17:01:59.574Z,8.23
2022-08-18T17:04:33.482Z,8.00
2022-08-18T17:07:02.694Z,7.03
2022-08-18T17:09:30.666Z,7.78
2022-08-18T17:11:58.674Z,7.90
2022-08-18T17:14:29.879Z,8.40
2022-08-18T17:16:58.898Z,8.33
2022-08-18T17:19:31.685Z,8.10
2022-08-18T17:22:00.784Z,7.82
2022-08-18T17:24:32.432Z,7.72
2022-08-18T17:27:11.900Z,7.65
2022-08-18T17:29:45.525Z,7.97
2022-08-18T17:32:20.217Z,7.22
2022-08-18T17:34:54.957Z,7.80
2022-08-18T17:37:24.051Z,7.13
2022-08-18T17:39:54.932Z,7.13
2022-08-18T17:42:29.088Z,7.45
2022-08-18T17:44:59.346Z,7.20
2022-08-18T17:47:33.211Z,7.82
2022-08-18T17:50:27.067Z,6.90
2022-08-18T17:53:01.670Z,8.02
2022-08-18T17:55:32.465Z,8.18
2022-08-18T17:58:03.655Z,7.57
2022-08-18T18:00:32.541Z,7.47
2022-08-18T18:03:01.275Z,8.30
2022-08-18T18:05:34.240Z,7.85
2022-08-18T18:08:02.595Z,8.07
2022-08-18T18:10:43.054Z,7.95
2022-08-18T18:13:24.709Z,8.10
2022-08-18T18:15:54.613Z,8.45
2022-08-18T18:18:27.021Z,7.72
2022-08-18T18:21:06.320Z,8.27
2022-08-18T18:23:38.227Z,7.95
2022-08-18T18:26:28.215Z,8.43
2022-08-18T18:29:16.355Z,7.75
2022-08-18T18:31:46.724Z,8.45
2022-08-18T18:34:23.335Z,8.38
2022-08-18T18:36:59.414Z,9.07
2022-08-18T18:39:33.257Z,9.02
2022-08-18T18:42:17.959Z,8.50
2022-08-18T18:44:54.892Z,8.45
2022-08-18T18:47:37.567Z,9.10
2022-08-18T18:50:08.585Z,9.25
2022-08-18T18:52:42.546Z,10.05
2022-08-18T18:55:15.653Z,9.18
2022-08-18T18:57:50.690Z,8.95
2022-08-18T19:00:21.058Z,8.63
2022-08-18T19:02:57.531Z,9.35
2022-08-18T19:05:30.932Z,9.25
2022-08-18T19:08:14.555Z,9.07
2022-08-18T19:10:46.161Z,9.15
2022-08-18T19:13:24.935Z,9.30
2022-08-18T19:16:06.519Z,9.27
2022-08-18T19:18:36.232Z,9.63
2022-08-18T19:22:02.007Z,10.10
2022-08-18T19:24:04.254Z,10.43
2022-08-18T19:26:38.899Z,10.35
2022-08-18T19:29:13.580Z,10.13
2022-08-18T19:31:46.179Z,10.02
2022-08-18T19:34:18.313Z,9.32
2022-08-18T19:39:34.189Z,9.82
2022-08-18T19:42:06.482Z,10.18
2022-08-18T19:44:38.025Z,9.07
2022-08-18T19:47:12.344Z,9.70
2022-08-18T19:49:48.453Z,9.55
2022-08-18T19:52:46.657Z,9.90
2022-08-18T19:55:28.092Z,9.57
2022-08-18T19:58:19.708Z,9.77
2022-08-18T20:00:53.153Z,9.57
2022-08-18T20:03:34.576Z,9.75
2022-08-18T20:06:33.610Z,9.30
2022-08-18T20:09:39.686Z,9.27
2022-08-18T20:12:20.678Z,8.82
2022-08-18T20:15:00.945Z,9.70
2022-08-18T20:17:28.989Z,10.25
2022-08-18T20:20:13.416Z,11.63
2022-08-18T20:22:43.614Z,11.55
2022-08-18T20:25:32.577Z,11.15
2022-08-18T20:28:23.518Z,12.07
2022-08-18T20:31:01.745Z,10.57
2022-08-18T20:33:32.614Z,11.63
2022-08-18T20:36:15.262Z,11.60
2022-08-18T20:38:45.591Z,12.45
2022-08-18T20:41:39.150Z,13.35
2022-08-18T20:44:28.832Z,12.77
2022-08-18T20:47:04.419Z,13.52
2022-08-18T20:49:42.462Z,13.63
2022-08-18T20:52:30.110Z,12.70
2022-08-18T20:55:11.555Z,13.48
2022-08-18T20:57:40.306Z,12.57
2022-08-18T21:00:15.565Z,12.20
2022-08-18T21:02:48.563Z,12.90
2022-08-18T21:05:27.738Z,13.38
2022-08-18T21:08:04.637Z,12.23
2022-08-18T21:10:33.908Z,11.82
2022-08-18T21:13:05.299Z,12.73
2022-08-18T21:15:37.313Z,12.97
2022-08-18T21:18:07.340Z,12.10
2022-08-18T21:20:35.758Z,12.20
2022-08-18T21:23:06.701Z,12.95
2022-08-18T21:25:34.995Z,11.95
2022-08-18T21:28:03.972Z,11.85
2022-08-18T21:30:32.652Z,13.07
2022-08-18T21:33:02.084Z,12.55
2022-08-18T21:35:33.409Z,12.38
2022-08-18T21:38:03.928Z,12.18
2022-08-18T21:40:39.239Z,11.55
2022-08-18T21:43:08.368Z,11.07
2022-08-18T21:45:47.652Z,11.43
2022-08-18T21:48:17.191Z,11.68
2022-08-18T21:50:51.245Z,11.45
2022-08-18T21:53:21.848Z,11.52
2022-08-18T21:55:51.457Z,11.98
2022-08-18T21:58:21.416Z,12.23
2022-08-18T22:01:14.069Z,11.00
2022-08-18T22:03:55.750Z,11.68
2022-08-18T22:06:30.721Z,10.52
2022-08-18T22:09:21.168Z,10.60
2022-08-18T22:12:09.185Z,11.35
2022-08-18T22:14:54.545Z,11.02
2022-08-18T22:17:32.561Z,11.32
2022-08-18T22:20:38.181Z,11.38
2022-08-18T22:23:41.748Z,11.18
2022-08-18T22:26:12.358Z,11.05
2022-08-18T22:28:49.498Z,11.15
2022-08-18T22:31:21.067Z,10.85
2022-08-18T22:33:49.673Z,11.63
2022-08-18T22:36:21.648Z,12.18
2022-08-18T22:38:52.342Z,11.60
2022-08-18T22:41:20.595Z,12.95
2022-08-18T22:43:50.428Z,12.77
2022-08-18T22:46:24.775Z,12.55
2022-08-18T22:48:53.677Z,12.93
2022-08-18T22:51:23.934Z,13.30
2022-08-18T22:53:53.601Z,11.65
2022-08-18T22:56:26.446Z,13.23
2022-08-18T22:59:13.792Z,12.65
2022-08-18T23:01:46.022Z,12.85
2022-08-18T23:04:15.953Z,12.80
2022-08-18T23:06:51.073Z,12.77
2022-08-18T23:09:22.599Z,12.77
2022-08-18T23:11:51.881Z,12.45
2022-08-18T23:14:20.146Z,12.48
2022-08-18T23:16:48.389Z,13.02
2022-08-18T23:19:17.422Z,13.13
2022-08-18T23:21:48.345Z,12.40
2022-08-18T23:24:17.518Z,13.20
2022-08-18T23:26:47.031Z,13.30
2022-08-18T23:29:15.340Z,12.95
2022-08-18T23:31:44.872Z,13.70
2022-08-18T23:34:15.271Z,14.00
2022-08-18T23:36:45.763Z,13.50
2022-08-18T23:39:14.438Z,14.40
2022-08-18T23:41:42.564Z,13.20
2022-08-18T23:44:13.427Z,13.02
2022-08-18T23:46:43.784Z,14.43
2022-08-18T23:49:15.005Z,14.38
2022-08-18T23:51:45.096Z,13.40
2022-08-18T23:54:15.619Z,14.20
2022-08-18T23:56:43.607Z,13.85
2022-08-18T23:59:13.549Z,13.02
